createdAt,value
2022-07-30T00:02:18.972Z,60.10
2022-07-30T00:04:48.206Z,60.20
2022-07-30T00:07:16.504Z,60.40
2022-07-30T00:09:44.327Z,60.70
2022-07-30T00:12:12.119Z,61.20
2022-07-30T00:14:39.894Z,61.40
2022-07-30T00:17:07.882Z,62.00
2022-07-30T00:19:35.923Z,62.40
2022-07-30T00:22:05.263Z,63.10
2022-07-30T00:24:33.427Z,63.50
2022-07-30T00:27:02.622Z,63.50
2022-07-30T00:29:30.859Z,63.70
2022-07-30T00:31:58.639Z,64.00
2022-07-30T00:34:26.438Z,64.30
2022-07-30T00:36:54.233Z,64.60
2022-07-30T00:39:23.423Z,65.00
2022-07-30T00:41:55.733Z,65.20
2022-07-30T00:44:23.729Z,65.20
2022-07-30T00:46:51.780Z,64.90
2022-07-30T00:49:19.712Z,65.10
2022-07-30T00:51:47.925Z,64.90
2022-07-30T00:54:16.380Z,65.20
2022-07-30T00:56:45.735Z,65.30
2022-07-30T00:59:13.527Z,65.20
2022-07-30T01:01:41.334Z,65.50
2022-07-30T01:04:11.682Z,65.60
2022-07-30T01:06:40.269Z,65.10
2022-07-30T01:09:08.239Z,64.70
2022-07-30T01:11:38.653Z,65.10
2022-07-30T01:14:09.028Z,65.00
2022-07-30T01:16:38.847Z,65.30
2022-07-30T01:19:29.670Z,65.50
2022-07-30T01:22:10.343Z,66.10
2022-07-30T01:24:42.117Z,66.50
2022-07-30T01:27:14.811Z,66.50
2022-07-30T01:29:46.740Z,66.30
2022-07-30T01:32:15.568Z,66.30
2022-07-30T01:34:44.435Z,66.20
2022-07-30T01:37:13.091Z,66.40
2022-07-30T01:39:41.451Z,66.50
2022-07-30T01:42:12.422Z,66.70
2022-07-30T01:44:41.705Z,66.90
2022-07-30T01:47:10.508Z,67.00
2022-07-30T01:49:41.605Z,67.20
2022-07-30T01:52:10.557Z,67.20
2022-07-30T01:54:40.267Z,67.00
2022-07-30T01:57:09.388Z,67.10
2022-07-30T01:59:41.311Z,67.10
2022-07-30T02:02:09.131Z,67.10
2022-07-30T02:04:36.974Z,67.30
2022-07-30T02:07:10.936Z,67.50
2022-07-30T02:09:47.260Z,67.70
2022-07-30T02:12:32.334Z,67.80
2022-07-30T02:15:16.773Z,67.90
2022-07-30T02:17:48.154Z,68.00
2022-07-30T02:20:18.448Z,67.90
2022-07-30T02:22:47.949Z,68.20
2022-07-30T02:25:19.924Z,68.50
2022-07-30T02:27:51.342Z,68.60
2022-07-30T02:30:20.844Z,69.00
2022-07-30T02:32:49.806Z,69.40
2022-07-30T02:35:21.786Z,69.60
2022-07-30T02:37:53.611Z,69.70
2022-07-30T02:40:24.301Z,69.50
2022-07-30T02:42:54.089Z,69.70
2022-07-30T02:45:25.268Z,70.10
2022-07-30T02:47:57.079Z,70.20
2022-07-30T02:50:26.652Z,70.30
2022-07-30T02:52:55.716Z,70.50
2022-07-30T02:55:25.371Z,70.80
2022-07-30T02:57:55.939Z,70.90
2022-07-30T03:00:26.443Z,71.10
2022-07-30T03:02:57.129Z,71.30
2022-07-30T03:05:26.703Z,71.50
2022-07-30T03:07:56.373Z,71.60
2022-07-30T03:10:25.793Z,71.80
2022-07-30T03:12:54.759Z,71.80
2022-07-30T03:15:22.823Z,71.60
2022-07-30T03:17:55.503Z,71.40
2022-07-30T03:20:27.352Z,71.40
2022-07-30T03:22:58.287Z,71.60
2022-07-30T03:25:28.540Z,72.40
2022-07-30T03:27:59.233Z,72.60
2022-07-30T03:30:27.928Z,72.90
2022-07-30T03:32:57.741Z,73.90
2022-07-30T03:35:26.547Z,74.20
2022-07-30T03:37:54.954Z,74.60
2022-07-30T03:40:24.039Z,75.10
2022-07-30T03:42:52.518Z,75.60
2022-07-30T03:45:21.966Z,75.60
2022-07-30T03:47:50.378Z,75.90
2022-07-30T03:50:19.646Z,76.70
2022-07-30T03:52:47.887Z,76.90
2022-07-30T03:55:16.506Z,77.20
2022-07-30T03:57:44.555Z,77.70
2022-07-30T04:00:15.636Z,77.90
2022-07-30T04:02:44.178Z,78.00
2022-07-30T04:05:13.284Z,77.50
2022-07-30T04:07:45.159Z,78.00
2022-07-30T04:10:14.003Z,78.00
2022-07-30T04:12:41.867Z,77.80
2022-07-30T04:16:05.008Z,78.30
2022-07-30T04:18:04.368Z,78.20
2022-07-30T04:20:37.805Z,78.20
2022-07-30T04:23:08.042Z,78.30
2022-07-30T04:25:35.943Z,78.00
2022-07-30T04:28:05.025Z,77.70
2022-07-30T04:30:34.742Z,76.80
2022-07-30T04:33:03.403Z,74.70
2022-07-30T04:35:50.056Z,73.10
2022-07-30T04:38:21.486Z,71.30
2022-07-30T04:40:49.478Z,68.80
2022-07-30T04:43:17.717Z,67.70
2022-07-30T04:45:45.726Z,66.30
2022-07-30T04:48:13.661Z,65.60
2022-07-30T04:50:44.051Z,64.50
2022-07-30T04:53:13.157Z,64.00
2022-07-30T04:55:45.766Z,64.00
2022-07-30T04:58:16.337Z,62.50
2022-07-30T05:00:44.961Z,61.20
2022-07-30T05:03:14.607Z,60.60
2022-07-30T05:05:43.399Z,58.70
2022-07-30T05:08:14.151Z,57.10
2022-07-30T05:10:44.788Z,57.90
2022-07-30T05:13:14.254Z,56.30
2022-07-30T05:15:44.575Z,56.00
2022-07-30T05:18:12.695Z,55.50
2022-07-30T05:20:40.781Z,55.50
2022-07-30T05:23:09.419Z,55.60
2022-07-30T05:25:37.266Z,55.90
2022-07-30T05:28:06.538Z,56.30
2022-07-30T05:30:35.585Z,56.90
2022-07-30T05:33:06.980Z,56.20
2022-07-30T05:35:43.322Z,56.20
2022-07-30T05:38:11.162Z,56.60
2022-07-30T05:40:38.971Z,56.80
2022-07-30T05:43:08.299Z,56.80
2022-07-30T05:45:36.100Z,56.00
2022-07-30T05:48:03.992Z,54.40
2022-07-30T05:50:31.814Z,55.20
2022-07-30T05:52:59.619Z,55.30
2022-07-30T05:55:27.517Z,55.00
2022-07-30T05:57:55.320Z,54.60
2022-07-30T06:00:24.496Z,55.10
2022-07-30T06:02:52.661Z,54.30
2022-07-30T06:05:20.828Z,54.10
2022-07-30T06:07:48.666Z,55.40
2022-07-30T06:10:16.671Z,53.70
2022-07-30T06:12:44.455Z,53.20
2022-07-30T06:15:12.408Z,51.90
2022-07-30T06:17:57.101Z,51.10
2022-07-30T06:20:29.798Z,51.20
2022-07-30T06:22:57.644Z,52.30
2022-07-30T06:25:25.559Z,51.80
2022-07-30T06:27:53.389Z,51.20
2022-07-30T06:30:21.236Z,50.70
2022-07-30T06:33:00.209Z,50.80
2022-07-30T06:35:28.055Z,50.70
2022-07-30T06:37:58.665Z,50.70
2022-07-30T06:40:35.557Z,51.40
2022-07-30T06:43:04.164Z,51.80
2022-07-30T06:45:32.209Z,50.50
2022-07-30T06:48:01.612Z,51.00
2022-07-30T06:50:29.724Z,51.90
2022-07-30T06:52:57.829Z,51.10
2022-07-30T06:55:25.710Z,50.90
2022-07-30T06:57:53.498Z,49.00
2022-07-30T07:00:21.543Z,50.10
2022-07-30T07:02:49.340Z,51.50
2022-07-30T07:05:18.797Z,49.60
2022-07-30T07:07:58.322Z,49.20
2022-07-30T07:10:27.096Z,50.10
2022-07-30T07:12:54.913Z,50.10
2022-07-30T07:15:36.607Z,50.30
2022-07-30T07:18:06.406Z,50.60
2022-07-30T07:20:36.481Z,49.30
2022-07-30T07:23:08.895Z,50.00
2022-07-30T07:25:37.637Z,48.50
2022-07-30T07:28:11.638Z,49.10
2022-07-30T07:30:41.476Z,47.40
2022-07-30T07:33:09.520Z,49.10
2022-07-30T07:35:49.227Z,48.20
2022-07-30T07:38:18.331Z,47.90
2022-07-30T07:40:46.356Z,48.00
2022-07-30T07:43:14.645Z,46.20
2022-07-30T07:45:45.978Z,45.80
2022-07-30T07:48:14.149Z,45.00
2022-07-30T07:50:43.318Z,44.70
2022-07-30T07:53:12.138Z,46.00
2022-07-30T07:55:39.951Z,45.20
2022-07-30T07:58:07.807Z,45.50
2022-07-30T08:00:35.947Z,44.30
2022-07-30T08:03:03.776Z,43.40
2022-07-30T08:06:00.924Z,43.20
2022-07-30T08:08:20.864Z,41.70
2022-07-30T08:10:49.070Z,40.20
2022-07-30T08:13:48.849Z,39.00
2022-07-30T08:16:04.969Z,39.60
2022-07-30T08:18:39.289Z,39.10
2022-07-30T08:21:08.519Z,36.90
2022-07-30T08:23:42.168Z,36.60
2022-07-30T08:26:10.373Z,36.20
2022-07-30T08:28:38.239Z,37.50
2022-07-30T08:31:06.346Z,38.00
2022-07-30T08:33:34.187Z,37.90
2022-07-30T08:36:04.541Z,38.00
2022-07-30T08:38:39.333Z,38.20
2022-07-30T08:41:07.577Z,35.90
2022-07-30T08:43:37.260Z,36.90
2022-07-30T08:46:09.717Z,39.00
2022-07-30T08:48:37.959Z,38.90
2022-07-30T08:51:06.150Z,37.90
2022-07-30T08:53:35.409Z,37.80
2022-07-30T08:56:04.967Z,38.10
2022-07-30T08:58:35.176Z,37.40
2022-07-30T09:01:03.815Z,36.40
2022-07-30T09:03:32.605Z,36.70
2022-07-30T09:06:01.974Z,36.90
2022-07-30T09:08:30.108Z,36.50
2022-07-30T09:10:57.951Z,36.10
2022-07-30T09:13:28.751Z,36.00
2022-07-30T09:15:57.063Z,36.70
2022-07-30T09:18:29.542Z,36.20
2022-07-30T09:20:59.190Z,36.40
2022-07-30T09:23:27.053Z,37.80
2022-07-30T09:25:57.005Z,38.20
2022-07-30T09:28:33.554Z,36.20
2022-07-30T09:31:01.816Z,35.90
2022-07-30T09:33:38.383Z,35.80
2022-07-30T09:36:10.999Z,35.70
2022-07-30T09:38:47.641Z,36.10
2022-07-30T09:41:37.824Z,36.00
2022-07-30T09:44:07.151Z,35.00
2022-07-30T09:46:47.291Z,34.80
2022-07-30T09:49:16.903Z,35.80
2022-07-30T09:51:55.945Z,36.90
2022-07-30T09:54:25.575Z,35.90
2022-07-30T09:57:26.575Z,35.20
2022-07-30T09:59:57.446Z,34.80
2022-07-30T10:02:32.878Z,36.90
2022-07-30T10:05:15.425Z,37.70
2022-07-30T10:07:52.076Z,38.20
2022-07-30T10:10:25.294Z,38.80
2022-07-30T10:12:57.363Z,39.20
2022-07-30T10:15:30.347Z,38.00
2022-07-30T10:18:02.033Z,37.40
2022-07-30T10:20:30.033Z,36.20
2022-07-30T10:23:07.769Z,35.50
2022-07-30T10:25:48.966Z,37.20
2022-07-30T10:28:22.905Z,38.80
2022-07-30T10:30:54.573Z,37.70
2022-07-30T10:33:36.315Z,37.40
2022-07-30T10:36:11.329Z,38.30
2022-07-30T10:38:43.021Z,38.30
2022-07-30T10:41:42.915Z,37.40
2022-07-30T10:44:46.665Z,35.90
2022-07-30T10:47:19.358Z,35.50
2022-07-30T10:50:05.779Z,35.10
2022-07-30T10:52:50.369Z,36.60
2022-07-30T10:55:19.908Z,37.60
2022-07-30T10:58:07.887Z,37.90
2022-07-30T11:00:38.149Z,38.10
2022-07-30T11:03:19.357Z,37.10
2022-07-30T11:05:50.528Z,35.40
2022-07-30T11:08:36.369Z,35.80
2022-07-30T11:11:19.235Z,36.00
2022-07-30T11:13:57.302Z,35.30
2022-07-30T11:16:47.564Z,35.40
2022-07-30T11:19:53.222Z,34.60
2022-07-30T11:22:26.077Z,34.60
2022-07-30T11:24:54.575Z,35.30
2022-07-30T11:27:41.292Z,35.30
2022-07-30T11:30:35.198Z,36.20
2022-07-30T11:33:33.126Z,36.30
2022-07-30T11:36:13.603Z,35.70
2022-07-30T11:38:57.177Z,34.20
2022-07-30T11:41:27.917Z,35.00
2022-07-30T11:44:27.798Z,35.10
2022-07-30T11:46:55.705Z,35.60
2022-07-30T11:49:23.592Z,35.90
2022-07-30T11:51:52.827Z,35.00
2022-07-30T11:54:20.695Z,34.40
2022-07-30T11:56:53.269Z,34.40
2022-07-30T11:59:21.171Z,34.70
2022-07-30T12:01:52.934Z,35.90
2022-07-30T12:04:21.117Z,35.60
2022-07-30T12:06:49.615Z,34.80
2022-07-30T12:09:33.649Z,35.40
2022-07-30T12:12:02.295Z,35.20
2022-07-30T12:14:38.819Z,34.90
2022-07-30T12:17:06.716Z,35.40
2022-07-30T12:19:47.969Z,36.20
2022-07-30T12:22:16.247Z,35.50
2022-07-30T12:24:45.510Z,35.60
2022-07-30T12:27:14.035Z,34.80
2022-07-30T12:29:42.381Z,34.50
2022-07-30T12:32:10.243Z,34.60
2022-07-30T12:34:38.180Z,34.40
2022-07-30T12:37:09.822Z,34.50
2022-07-30T12:39:37.736Z,35.10
2022-07-30T12:42:07.125Z,36.00
2022-07-30T12:44:36.650Z,35.80
2022-07-30T12:47:06.193Z,36.20
2022-07-30T12:49:37.734Z,36.70
2022-07-30T12:52:28.541Z,34.50
2022-07-30T12:55:06.388Z,33.90
2022-07-30T12:57:55.286Z,34.00
2022-07-30T13:00:23.967Z,34.60
2022-07-30T13:02:51.897Z,35.10
2022-07-30T13:05:20.082Z,35.20
2022-07-30T13:07:55.790Z,36.00
2022-07-30T13:10:28.545Z,35.60
2022-07-30T13:12:59.980Z,34.00
2022-07-30T13:15:27.886Z,34.40
2022-07-30T13:17:55.757Z,34.80
2022-07-30T13:20:23.934Z,35.20
2022-07-30T13:22:51.715Z,35.30
2022-07-30T13:25:19.534Z,34.80
2022-07-30T13:27:48.338Z,33.80
2022-07-30T13:30:17.524Z,34.30
2022-07-30T13:32:45.578Z,34.00
2022-07-30T13:35:13.385Z,34.60
2022-07-30T13:37:41.279Z,35.00
2022-07-30T13:40:10.335Z,35.90
2022-07-30T13:42:38.131Z,36.10
2022-07-30T13:45:07.294Z,35.60
2022-07-30T13:47:36.583Z,35.40
2022-07-30T13:50:04.803Z,35.80
2022-07-30T13:52:32.694Z,36.10
2022-07-30T13:55:00.555Z,36.70
2022-07-30T13:57:28.368Z,36.70
2022-07-30T13:59:56.167Z,36.80
2022-07-30T14:02:23.991Z,36.20
2022-07-30T14:04:53.127Z,35.70
2022-07-30T14:07:20.902Z,36.00
2022-07-30T14:09:52.732Z,35.50
2022-07-30T14:12:22.336Z,36.00
2022-07-30T14:14:50.319Z,35.80
2022-07-30T14:17:18.167Z,35.60
2022-07-30T14:19:45.987Z,36.30
2022-07-30T14:22:15.159Z,36.40
2022-07-30T14:24:42.997Z,36.40
2022-07-30T14:27:10.845Z,36.10
2022-07-30T14:29:38.645Z,35.70
2022-07-30T14:32:06.806Z,35.30
2022-07-30T14:34:34.674Z,34.90
2022-07-30T14:37:03.237Z,35.60
2022-07-30T14:39:32.697Z,35.90
2022-07-30T14:42:00.535Z,36.80
2022-07-30T14:44:28.406Z,36.70
2022-07-30T14:46:56.192Z,36.60
2022-07-30T14:49:24.379Z,36.80
2022-07-30T14:51:52.925Z,37.50
2022-07-30T14:54:20.891Z,37.00
2022-07-30T14:56:54.853Z,37.00
2022-07-30T14:59:24.176Z,36.70
2022-07-30T15:01:52.610Z,37.00
2022-07-30T15:04:20.546Z,36.60
2022-07-30T15:06:48.392Z,36.70
2022-07-30T15:09:16.193Z,37.10
2022-07-30T15:12:07.647Z,37.60
2022-07-30T15:14:33.743Z,37.50
2022-07-30T15:17:04.163Z,37.10
2022-07-30T15:19:32.746Z,37.60
2022-07-30T15:22:02.483Z,37.30
2022-07-30T15:24:31.140Z,36.40
2022-07-30T15:26:58.994Z,36.30
2022-07-30T15:29:29.249Z,36.10
2022-07-30T15:32:00.096Z,35.50
2022-07-30T15:34:28.578Z,35.60
2022-07-30T15:36:56.407Z,35.80
2022-07-30T15:39:24.358Z,35.60
2022-07-30T15:41:56.942Z,35.10
2022-07-30T15:44:25.154Z,34.80
2022-07-30T15:46:52.933Z,35.40
2022-07-30T15:49:22.224Z,35.00
2022-07-30T15:51:50.282Z,35.90
2022-07-30T15:54:22.408Z,36.70
2022-07-30T15:56:51.626Z,36.90
2022-07-30T15:59:19.448Z,37.20
2022-07-30T16:01:48.198Z,36.80
2022-07-30T16:04:19.186Z,36.60
2022-07-30T16:06:49.429Z,36.50
2022-07-30T16:09:17.272Z,37.10
2022-07-30T16:11:45.193Z,36.90
2022-07-30T16:14:14.836Z,37.00
2022-07-30T16:16:42.665Z,37.50
2022-07-30T16:19:10.487Z,37.30
2022-07-30T16:21:38.284Z,36.90
2022-07-30T16:24:08.109Z,37.20
2022-07-30T16:26:37.247Z,37.70
2022-07-30T16:29:05.152Z,38.10
2022-07-30T16:31:33.034Z,37.90
2022-07-30T16:34:01.462Z,37.70
2022-07-30T16:36:29.469Z,38.00
2022-07-30T16:38:57.391Z,38.10
2022-07-30T16:41:26.514Z,37.80
2022-07-30T16:43:54.412Z,37.90
2022-07-30T16:46:22.256Z,37.50
2022-07-30T16:48:50.523Z,37.30
2022-07-30T16:51:18.704Z,37.00
2022-07-30T16:53:48.485Z,37.50
2022-07-30T16:56:16.834Z,37.60
2022-07-30T16:58:46.132Z,37.70
2022-07-30T17:01:14.039Z,38.10
2022-07-30T17:03:41.945Z,38.30
2022-07-30T17:06:09.923Z,38.60
2022-07-30T17:08:37.769Z,38.90
2022-07-30T17:11:09.421Z,38.80
2022-07-30T17:13:38.259Z,38.80
2022-07-30T17:16:08.021Z,39.00
2022-07-30T17:18:35.798Z,38.90
2022-07-30T17:21:03.675Z,39.00
2022-07-30T17:23:34.190Z,38.70
2022-07-30T17:26:02.026Z,38.30
2022-07-30T17:28:29.830Z,38.40
2022-07-30T17:30:57.681Z,38.10
2022-07-30T17:33:29.072Z,37.90
2022-07-30T17:35:56.953Z,37.70
2022-07-30T17:38:24.834Z,37.70
2022-07-30T17:40:52.641Z,37.80
2022-07-30T17:43:20.479Z,37.70
2022-07-30T17:45:48.332Z,38.10
2022-07-30T17:48:17.997Z,37.60
2022-07-30T17:50:47.171Z,37.80
2022-07-30T17:53:14.974Z,37.60
2022-07-30T17:55:57.620Z,37.60
2022-07-30T17:58:25.987Z,37.30
2022-07-30T18:00:54.095Z,37.60
2022-07-30T18:03:22.566Z,37.90
2022-07-30T18:05:52.043Z,38.70
2022-07-30T18:08:19.818Z,38.70
2022-07-30T18:10:47.590Z,39.20
2022-07-30T18:13:26.642Z,39.50
2022-07-30T18:15:54.921Z,39.10
2022-07-30T18:18:22.941Z,38.50
2022-07-30T18:20:52.112Z,38.80
2022-07-30T18:23:20.213Z,38.60
2022-07-30T18:25:53.229Z,39.20
2022-07-30T18:28:22.534Z,39.70
2022-07-30T18:30:50.543Z,40.10
2022-07-30T18:33:18.466Z,40.40
2022-07-30T18:35:46.408Z,40.20
2022-07-30T18:38:15.636Z,41.10
2022-07-30T18:40:44.381Z,41.50
2022-07-30T18:43:13.198Z,41.70
2022-07-30T18:45:40.996Z,42.10
2022-07-30T18:48:08.798Z,42.30
2022-07-30T18:50:36.614Z,42.80
2022-07-30T18:53:15.386Z,43.10
2022-07-30T18:55:45.879Z,43.30
2022-07-30T18:58:13.719Z,43.30
2022-07-30T19:00:43.820Z,43.60
2022-07-30T19:03:17.618Z,43.80
2022-07-30T19:05:49.172Z,44.40
2022-07-30T19:08:17.667Z,44.30
2022-07-30T19:10:46.823Z,44.50
2022-07-30T19:13:14.791Z,45.10
2022-07-30T19:15:42.643Z,46.00
2022-07-30T19:18:11.486Z,46.50
2022-07-30T19:20:39.914Z,47.00
2022-07-30T19:23:08.837Z,47.50
2022-07-30T19:25:39.147Z,48.20
2022-07-30T19:28:08.443Z,48.60
2022-07-30T19:30:36.437Z,49.00
2022-07-30T19:33:05.331Z,49.60
2022-07-30T19:35:33.850Z,50.20
2022-07-30T19:38:01.994Z,50.60
2022-07-30T19:40:30.507Z,50.80
2022-07-30T19:43:01.991Z,51.10
2022-07-30T19:45:47.204Z,51.70
2022-07-30T19:48:29.661Z,52.20
2022-07-30T19:51:01.445Z,52.80
2022-07-30T19:53:31.172Z,53.20
2022-07-30T19:56:01.608Z,53.40
2022-07-30T19:58:30.154Z,53.50
2022-07-30T20:00:59.958Z,53.90
2022-07-30T20:03:31.537Z,54.40
2022-07-30T20:06:00.031Z,54.60
2022-07-30T20:08:28.059Z,54.50
2022-07-30T20:10:57.629Z,54.50
2022-07-30T20:13:44.686Z,55.00
2022-07-30T20:16:15.547Z,55.70
2022-07-30T20:18:46.188Z,55.70
2022-07-30T20:21:15.878Z,56.20
2022-07-30T20:23:44.510Z,56.60
2022-07-30T20:26:14.251Z,56.80
2022-07-30T20:28:42.906Z,56.50
2022-07-30T20:31:12.911Z,56.60
2022-07-30T20:33:42.123Z,55.90
2022-07-30T20:36:10.877Z,56.30
2022-07-30T20:38:40.256Z,56.50
2022-07-30T20:41:10.220Z,56.60
2022-07-30T20:43:45.866Z,56.70
2022-07-30T20:46:20.408Z,57.10
2022-07-30T20:48:49.668Z,57.40
2022-07-30T20:51:17.568Z,57.50
2022-07-30T20:53:45.813Z,58.00
2022-07-30T20:56:14.887Z,58.20
2022-07-30T20:58:45.969Z,57.90
2022-07-30T21:01:17.683Z,58.10
2022-07-30T21:03:47.599Z,57.90
2022-07-30T21:06:18.069Z,58.30
2022-07-30T21:08:45.835Z,58.30
2022-07-30T21:11:14.546Z,58.50
2022-07-30T21:13:42.508Z,58.50
2022-07-30T21:16:16.270Z,58.30
2022-07-30T21:18:49.233Z,58.20
2022-07-30T21:21:28.897Z,58.40
2022-07-30T21:24:11.456Z,58.70
2022-07-30T21:26:40.701Z,58.60
2022-07-30T21:29:08.865Z,59.20
2022-07-30T21:32:08.795Z,59.00
2022-07-30T21:34:25.979Z,59.20
2022-07-30T21:36:55.681Z,59.60
2022-07-30T21:39:28.948Z,60.00
2022-07-30T21:41:57.228Z,60.30
2022-07-30T21:44:25.374Z,60.60
2022-07-30T21:46:53.743Z,60.70
2022-07-30T21:49:23.597Z,60.70
2022-07-30T21:51:51.437Z,60.20
2022-07-30T21:54:29.069Z,60.70
2022-07-30T21:56:58.394Z,60.70
2022-07-30T21:59:27.533Z,61.20
2022-07-30T22:01:55.619Z,61.00
2022-07-30T22:04:23.468Z,60.70
2022-07-30T22:06:54.541Z,60.70
2022-07-30T22:09:34.217Z,61.00
2022-07-30T22:12:09.675Z,61.30
2022-07-30T22:14:40.509Z,61.70
2022-07-30T22:17:14.776Z,61.20
2022-07-30T22:19:51.459Z,60.60
2022-07-30T22:22:27.040Z,60.30
2022-07-30T22:24:57.323Z,59.70
2022-07-30T22:27:28.060Z,59.20
2022-07-30T22:30:09.438Z,59.20
2022-07-30T22:32:37.350Z,58.50
2022-07-30T22:35:07.988Z,58.30
2022-07-30T22:37:37.994Z,58.40
2022-07-30T22:40:08.596Z,58.40
2022-07-30T22:42:46.601Z,58.70
2022-07-30T22:45:17.536Z,58.80
2022-07-30T22:50:53.817Z,59.40
2022-07-30T22:54:11.220Z,58.70
2022-07-30T22:59:00.439Z,60.00
2022-07-30T23:01:28.260Z,59.50
2022-07-30T23:03:56.080Z,59.80
2022-07-30T23:06:23.980Z,59.80
2022-07-30T23:08:51.955Z,60.70
2022-07-30T23:11:22.264Z,60.70
2022-07-30T23:12:30.540Z,58.50
2022-07-30T23:12:30.810Z,59.70
2022-07-30T23:13:53.627Z,60.70
2022-07-30T23:16:21.426Z,60.40
2022-07-30T23:18:49.207Z,61.10
2022-07-30T23:21:17.041Z,61.60
2022-07-30T23:23:44.981Z,62.20
2022-07-30T23:26:12.887Z,62.40
2022-07-30T23:28:42.078Z,62.80
2022-07-30T23:31:09.931Z,63.20
2022-07-30T23:33:37.849Z,63.30
2022-07-30T23:36:06.562Z,63.40
2022-07-30T23:38:34.877Z,63.70
2022-07-30T23:41:04.067Z,63.30
2022-07-30T23:43:32.040Z,64.10
2022-07-30T23:46:01.241Z,64.20
2022-07-30T23:48:29.147Z,64.40
2022-07-30T23:50:56.936Z,64.10
2022-07-30T23:53:25.166Z,64.30
2022-07-30T23:55:53.227Z,64.90
2022-07-30T23:58:21.212Z,64.50
